Cape Lookout National Seasho, North Carolina
Current Conditions -  °F | °C
As of 2:58 AM on Saturday 25 Oct 2014 (Local Time) from KMRH Reporting Station
Clear Clear  
Wind Chill: 55°   Ceiling: Unl
Heat Index: 55°   Visibility: 10mi
Dew Point: 51°   Wind: 6mph
Humidity: 86%   Direction: 320°NW
Pressure: 29.97"   Gusts: NA
Location:  34.8465°N, 76.6069°W
Report Text: KMRH 250658Z AUTO 32005KT 10SM CLR 13/11 A2997 RMK AO2 SLP148 T01280106 TSNO
Loading
Personal Weather Stations






























Interactive Weather Map
Tropical Storm Tracking
New forecast layout! Learn more

10-Day Weather Forecast

Advertisements
Track Severe Weather on mobile